Tiempo atmosférico en la estación meteorológica de Llorac, Tarragona (660 m.)



Fecha
DESCASC
Temp. máxima en grados centígrados (hora)
DESCASC
Temp. mínima en grados centígrados (hora)
DESCASC
Temp. media en grados centígrados
DESCASC
Racha de viento máxima en m/sg (hora)
DESCASC
Velocidad máxima media en intervalos de 10 minutos(hora)
DESCASC
Precipitaciones diarias en mm
DESCASC
Precipitaciones de 00:00 a 06:00 en mm
DESCASC
Precipitaciones de 06:00 a 12:00 en mm
DESCASC
Precipitaciones de 12:00 a 18:00 en mm
DESCASC
Precipitaciones de 18:00 a 24:00 en mm
DESCASC
22-11-2020 13.7 (14:20) -4.1 (07:30) 4.8 4.44 (13:20) 2.78 (13:20) 0 0 0 0 0
21-11-2020 11.6 (12:50) -4.7 (07:50) 3.5 5.28 (14:00) 3.89 (14:10) 0 0 0 0 0
20-11-2020 10.7 (15:40) 0.3 (23:59) 5.5 11.39 (15:00) 8.61 (12:40) 0 0 0 0 0
19-11-2020 14.2 (14:00) 4.8 (00:00) 9.5 9.17 (23:30) 6.67 (23:10) 0.2 0 0.2 0 0
18-11-2020 18.2 (15:00) 0.4 (00:00) 9.3 4.44 (13:10) 2.78 (12:20) 0 0 0 0 0
17-11-2020 18.2 (14:50) 0.5 (00:00) 9.4 3.61 (13:30) 2.22 (08:00) 0 0 0 0 0
16-11-2020 15.6 (12:10) 4.8 (00:00) 10.2 10 (13:10) 7.5 (13:10) 0 0 0 0 0
15-11-2020 15.9 (14:30) 4.1 (00:00) 10 10.83 (11:50) 7.22 (11:40) 0.2 0.2 0 0 0
14-11-2020 17.2 (13:20) 1.8 (00:00) 9.5 5.83 (12:20) 3.33 (15:20) 0 0 0 0 0
13-11-2020 16.6 (13:30) 3.6 (00:00) 10.1 5 (13:40) 3.33 (02:40) 0 0 0 0 0
12-11-2020 16.5 (13:30) 3.1 (00:00) 9.8 3.89 (14:20) 2.78 (14:20) 0.2 0 0.2 0 0
11-11-2020 15.7 (14:20) 1.3 (00:00) 8.5 5.28 (12:50) 4.17 (12:40) 0.2 0 0.2 0 0
10-11-2020 14.1 (14:40) 2.5 (00:00) 8.3 5 (15:50) 4.17 (15:40) 0 0 0 0 0
09-11-2020 17.4 (14:50) 0.7 (00:00) 9 5.83 (14:10) 3.33 (12:30) 0 0 0 0 0
08-11-2020 16.6 (16:10) 3.2 (00:00) 9.9 4.44 (13:40) 3.33 (13:50) 0 0 0 0 0
07-11-2020 14.9 (15:00) 6.7 (00:00) 10.8 15.56 (07:30) 9.17 (01:30) 11 0 10.4 0.6 0
06-11-2020 14.3 (14:40) 11.9 (00:00) 13.1 13.33 (23:30) 8.33 (21:40) 0.8 0.8 0 0 0
05-11-2020 14.3 (13:10) 1.9 (00:00) 8.1 11.39 (20:40) 7.22 (11:20) 0.2 0 0.2 0 0
04-11-2020 8.7 (00:10) 6.1 (00:00) 7.4 7.5 (01:40) 4.72 (01:40) 15.8 9 6.4 0.4 0
03-11-2020 17.4 (10:40) 6.4 (00:00) 11.9 7.22 (20:40) 5 (20:00) 5 0 0 0 5
02-11-2020 22.7 (13:20) 3.6 (00:00) 13.2 6.39 (13:50) 4.44 (13:50) 0 0 0 0 0
01-11-2020 20 (15:00) 1.7 (00:00) 10.9 9.44 (10:50) 6.94 (10:50) 0 0 0 0 0
31-10-2020 20.2 (14:50) -0.9 (-00:0) 9.7 8.89 (13:40) 6.39 (12:40) 0 0 0 0 0
30-10-2020 20.6 (16:10) 0.1 (00:00) 10.4 5.83 (12:10) 3.89 (13:00) 0 0 0 0 0
29-10-2020 17.7 (15:40) 1.5 (00:00) 9.6 7.5 (12:30) 5.28 (12:40) 0 0 0 0 0
28-10-2020 16.9 (16:10) 3.4 (00:00) 10.1 9.17 (12:00) 6.67 (12:00) 0 0 0 0 0
27-10-2020 13.7 (16:00) 3.3 (00:00) 8.5 11.39 (13:50) 7.78 (13:20) 0 0 0 0 0
26-10-2020 13.8 (00:10) 6 (00:00) 9.9 15.83 (16:40) 11.11 (11:20) 1.2 1.2 0 0 0

Gráficas

Temp. máximas Temp. mínimas Temp. medias Precipitaciones Rachas de viento máximas Velocidades máximas media en intervalos de 10 minutos

Datos horarios

Fecha y hora oficial Temperatura (ºC) Velocidad del viento (km/h) Dirección del viento Racha (km/h) Dirección de racha Precipitación (mm) Presión (hPa) Tendencia (hPa) Humedad (%)
2020-11-24 23:00:00 3.8 3 Este 6 Este 0 -- -- 99
2020-11-24 22:00:00 5.6 2 Sudeste 5 Sudeste 0 -- -- 98
2020-11-24 21:00:00 7.6 3 Sudeste 13 Sudeste 0 -- -- 96
2020-11-24 20:00:00 8.2 9 Sudeste 17 Sudeste 0 -- -- 95
2020-11-24 19:00:00 7.8 9 Sudeste 15 Sudeste 0 -- -- 94
2020-11-24 18:00:00 8.5 10 Sudeste 14 Sudeste 0 -- -- 90
2020-11-24 17:00:00 10.3 8 Sudeste 15 Sudeste 0 -- -- 80
2020-11-24 16:00:00 11.6 8 Sur 16 Sudoeste 0 -- -- 74
2020-11-24 15:00:00 12.5 7 Sudoeste 17 Sur 0 -- -- 71
2020-11-24 14:00:00 12.4 8 Sur 21 Sudeste 0 -- -- 72
2020-11-24 13:00:00 12.1 10 Sur 21 Sudoeste 0 -- -- 73
2020-11-24 12:00:00 11.5 10 Sudoeste 23 Sur 0 -- -- 75
2020-11-24 11:00:00 10.7 14 Sur 23 Sur 0 -- -- 80
2020-11-24 10:00:00 7.1 5 Sudeste 11 Este 0.2 -- -- 100
2020-11-24 09:00:00 -0.5 6 Sudeste 12 Sudeste 0 -- -- 100
2020-11-24 08:00:00 -3.1 6 Sudeste 9 Este 0 -- -- 99
2020-11-24 07:00:00 -3 4 Sudeste 8 Sudeste 0 -- -- 99
2020-11-24 06:00:00 -3.2 5 Sudeste 8 Sudeste 0 -- -- 99
2020-11-24 05:00:00 -3.3 5 Sudeste 9 Sudeste 0 -- -- 98
2020-11-24 04:00:00 -3.2 6 Sudeste 11 Sudeste 0 -- -- 99
2020-11-24 03:00:00 -3.1 6 Sudeste 9 Sudeste 0 -- -- 99
2020-11-24 02:00:00 -2.9 6 Sudeste 9 Sudeste 0 -- -- 99
2020-11-24 01:00:00 -2.5 6 Sudeste 8 Sudeste 0 -- -- 99
2020-11-24 00:00:00 -2.2 6 Sudeste 10 Sudeste 0 -- -- 99
2020-11-23 23:00:00 -2.1 6 Sudeste 9 Sudeste 0 -- -- 99
2020-11-23 22:00:00 -1.6 6 Sudeste 9 Sudeste 0 -- -- 98
2020-11-23 21:00:00 -1 5 Sudeste 8 Sudeste 0 -- -- 97
2020-11-23 20:00:00 0.3 5 Sudeste 9 Sudeste 0 -- -- 96
2020-11-23 19:00:00 1.9 6 Sudeste 8 Sudeste 0 -- -- 95
2020-11-23 18:00:00 5.2 3 Este 7 Noroeste 0 -- -- 87
2020-11-23 17:00:00 8.6 4 Noroeste 10 Oeste 0 -- -- 80
2020-11-23 16:00:00 11.4 8 Oeste 13 Oeste 0 -- -- 70
2020-11-23 15:00:00 12.2 10 Oeste 16 Noroeste 0 -- -- 64
2020-11-23 14:00:00 12.1 10 Oeste 16 Noroeste 0 -- -- 62
2020-11-23 13:00:00 11.3 10 Oeste 15 Oeste 0 -- -- 62
2020-11-23 12:00:00 10.1 10 Oeste 13 Oeste 0 -- -- 65
2020-11-23 11:00:00 7.8 9 Oeste 13 Oeste 0 -- -- 100
2020-11-23 10:00:00 4.2 2 Sudeste 6 Sudeste 0 -- -- 100
2020-11-23 09:00:00 0.6 4 Sudeste 9 Sudeste 0 -- -- 100
2020-11-23 08:00:00 -0.4 4 Sudeste 8 Sudeste 0 -- -- 100
2020-11-23 07:00:00 -1.3 5 Sudeste 7 Sudeste 0 -- -- 100
2020-11-23 06:00:00 -1.1 5 Sudeste 9 Sudeste 0 -- -- 100
2020-11-23 05:00:00 0 4 Sudeste 7 Sudeste 0 -- -- 100
2020-11-23 04:00:00 1.1 3 Sudeste 5 Sudeste 0 -- -- 100
2020-11-23 03:00:00 2.9 0 Calma 4 Este 0 -- -- 100
2020-11-23 02:00:00 1.5 0 Calma 8 Sudeste 0 -- -- 100
2020-11-23 01:00:00 -0.2 4 Sudeste 7 Sudeste 0 -- -- 100
2020-11-23 00:00:00 -1.2 5 Sudeste 7 Sudeste 0 -- -- 99
2020-11-22 23:00:00 -2 5 Sudeste 8 Sudeste 0 -- -- 97
2020-11-22 22:00:00 -1.7 3 Sudeste 6 Sudeste 0 -- -- 96
2020-11-22 21:00:00 -1.4 5 Sudeste 9 Sudeste 0 -- -- 95
2020-11-22 20:00:00 -0.7 6 Sudeste 9 Sudeste 0 -- -- 93
2020-11-22 19:00:00 1.3 6 Sudeste 6 Sudeste 0 -- -- 88
2020-11-22 18:00:00 4.4 4 Sudeste 6 Sudeste 0 -- -- 80
2020-11-22 17:00:00 9.3 3 Noroeste 12 Oeste 0 -- -- 63
2020-11-22 16:00:00 12.6 9 Oeste 14 Oeste 0 -- -- 53
2020-11-22 15:00:00 13.3 9 Oeste 14 Oeste 0 -- -- 48
2020-11-22 14:00:00 13.4 8 Oeste 16 Oeste 0 -- -- 48
2020-11-22 13:00:00 13 8 Oeste 11 Noroeste 0 -- -- 48
2020-11-22 12:00:00 11.5 6 Oeste 10 Oeste 0 -- -- 54
2020-11-22 11:00:00 9.2 3 Oeste 5 Noroeste 0 -- -- 72
2020-11-22 10:00:00 3.9 0 Calma 8 Sudeste 0 -- -- 95
2020-11-22 09:00:00 -1.5 5 Sudeste 7 Sudeste 0 -- -- 98
2020-11-22 08:00:00 -4 4 Sudeste 9 Sudeste 0 -- -- 98
2020-11-22 07:00:00 -4 5 Sudeste 8 Sudeste 0 -- -- 98
2020-11-22 06:00:00 -3.9 5 Sudeste 10 Sudeste 0 -- -- 98
2020-11-22 05:00:00 -3.6 6 Sudeste 9 Sudeste 0 -- -- 98
2020-11-22 04:00:00 -3.4 5 Este 8 Sudeste 0 -- -- 98
2020-11-22 03:00:00 -3 5 Sudeste 9 Sudeste 0 -- -- 99
2020-11-22 02:00:00 -2.8 6 Sudeste 11 Sudeste 0 -- -- 99
2020-11-22 01:00:00 -2.7 6 Sudeste 10 Sudeste 0 -- -- 98
2020-11-22 00:00:00 -2.1 4 Sudeste 9 Sudeste 0 -- -- 99
2020-11-21 23:00:00 -2 5 Sudeste 9 Sudeste 0 -- -- 98
2020-11-21 22:00:00 -1.4 6 Sudeste 9 Sudeste 0 -- -- 97
2020-11-21 21:00:00 -1.3 7 Sudeste 15 Sudeste 0 -- -- 95
2020-11-21 20:00:00 -0.9 4 Sudeste 9 Sudeste 0 -- -- 93
2020-11-21 19:00:00 0.7 6 Sudeste 8 Sudeste 0 -- -- 88
2020-11-21 18:00:00 3.1 3 Sudeste 7 Sudeste 0 -- -- 81
2020-11-21 17:00:00 7.3 0 Calma 4 Oeste 0 -- -- 66
2020-11-21 16:00:00 10.9 4 Oeste 14 Oeste 0 -- -- 52
2020-11-21 15:00:00 10.9 10 Oeste 18 Oeste 0 -- -- 49
2020-11-21 14:00:00 11.3 14 Noroeste 19 Oeste 0 -- -- 51
2020-11-21 13:00:00 11.6 12 Oeste 17 Oeste 0 -- -- 50
2020-11-21 12:00:00 11.3 6 Oeste 11 Oeste 0 -- -- 49
2020-11-21 11:00:00 8.4 5 Oeste 10 Noroeste 0 -- -- 55
2020-11-21 10:00:00 3.6 0 Calma 8 Sudeste 0 -- -- 83
2020-11-21 09:00:00 -2 7 Sudeste 9 Sudeste 0 -- -- 94
2020-11-21 08:00:00 -4.7 6 Sudeste 9 Sudeste 0 -- -- 96
2020-11-21 07:00:00 -4.6 6 Sudeste 10 Sudeste 0 -- -- 95
2020-11-21 06:00:00 -4.2 7 Sudeste 13 Sudeste 0 -- -- 95
2020-11-21 05:00:00 -3.6 4 Sudeste 10 Sudeste 0 -- -- 95
2020-11-21 04:00:00 -2.7 4 Sudeste 15 Sudeste 0 -- -- 92
2020-11-21 03:00:00 -2.5 3 Norte 12 Sudeste 0 -- -- 95
2020-11-21 02:00:00 -2.3 0 Calma 9 Sudeste 0 -- -- 92
2020-11-21 01:00:00 -1.7 7 Sudeste 10 Sudeste 0 -- -- 91
2020-11-21 00:00:00 0.3 6 Sudeste 11 Norte 0 -- -- 86
2020-11-20 23:00:00 4.4 7 Norte 13 Noroeste 0 -- -- 72
2020-11-20 22:00:00 2.8 6 Norte 9 Norte 0 -- -- 82
2020-11-20 21:00:00 5.4 8 Noroeste 21 Noroeste 0 -- -- 72
2020-11-20 20:00:00 7 15 Noroeste 25 Noroeste 0 -- -- 67
2020-11-20 19:00:00 7.4 9 Noroeste 19 Noroeste 0 -- -- 66
2020-11-20 18:00:00 8.4 11 Noroeste 33 Noroeste 0 -- -- 63
2020-11-20 17:00:00 9.6 28 Noroeste 41 Oeste 0 -- -- 57
2020-11-20 16:00:00 10.6 30 Noroeste 39 Oeste 0 -- -- 55
2020-11-20 15:00:00 10.3 31 Noroeste 41 Oeste 0 -- -- 59
2020-11-20 14:00:00 10.1 26 Noroeste 38 Oeste 0 -- -- 61
2020-11-20 13:00:00 9.2 26 Oeste 40 Oeste 0 -- -- 65
2020-11-20 12:00:00 8.2 23 Noroeste 33 Oeste 0 -- -- 72
2020-11-20 11:00:00 5.8 24 Noroeste 33 Oeste 0 -- -- 81
2020-11-20 10:00:00 4.8 18 Noroeste 29 Noroeste 0 -- -- 88
2020-11-20 09:00:00 4.5 15 Noroeste 38 Noroeste 0 -- -- 92
2020-11-20 08:00:00 4.1 24 Noroeste 35 Oeste 0 -- -- 92
2020-11-20 07:00:00 3.5 17 Noroeste 29 Noroeste 0 -- -- 94
2020-11-20 06:00:00 3.8 12 Noroeste 21 Noroeste 0 -- -- 94
2020-11-20 05:00:00 4.2 15 Noroeste 25 Noroeste 0 -- -- 96
2020-11-20 04:00:00 4.7 13 Noroeste 21 Norte 0 -- -- 95
2020-11-20 03:00:00 5.6 15 Noroeste 30 Noroeste 0 -- -- 92
2020-11-20 02:00:00 6.2 21 Noroeste 32 Oeste 0 -- -- 91
2020-11-20 01:00:00 7 22 Noroeste 33 Noroeste 0 -- -- 91
2020-11-20 00:00:00 7.9 21 Noroeste 33 Noroeste 0 -- -- 91
2020-11-19 23:00:00 8.7 20 Noroeste 27 Noroeste 0 -- -- 91
2020-11-19 22:00:00 9.2 14 Noroeste 25 Oeste 0 -- -- 92
2020-11-19 21:00:00 9.9 17 Noroeste 24 Oeste 0 -- -- 95
2020-11-19 20:00:00 8.7 8 Noroeste 16 Noroeste 0 -- -- 98
2020-11-19 19:00:00 9 8 Noroeste 16 Noroeste 0 -- -- 97
2020-11-19 18:00:00 9.7 11 Noroeste 17 Oeste 0 -- -- 96
2020-11-19 17:00:00 10.8 11 Noroeste 18 Noroeste 0 -- -- 91
2020-11-19 16:00:00 11.7 10 Noroeste 27 Noroeste 0 -- -- 89
2020-11-19 15:00:00 13.7 21 Noroeste 31 Noroeste 0 -- -- 81
2020-11-19 14:00:00 14.2 17 Noroeste 26 Oeste 0 -- -- 76
2020-11-19 13:00:00 10.8 20 Noroeste 27 Oeste 0 -- -- 92
2020-11-19 12:00:00 10.8 15 Noroeste 19 Noroeste 0 -- -- 100
2020-11-19 11:00:00 9.6 12 Noroeste 26 Oeste 0 -- -- 100
2020-11-19 10:00:00 8.9 15 Noroeste 23 Noroeste 0 -- -- 100
2020-11-19 09:00:00 9.2 14 Noroeste 21 Noroeste 0 -- -- 100
2020-11-19 08:00:00 9.2 12 Noroeste 19 Noroeste 0 -- -- 100
2020-11-19 07:00:00 9.2 9 Noroeste 16 Noroeste 0.2 -- -- 100
2020-11-19 06:00:00 6.1 2 Noroeste 6 Sudeste 0 -- -- 100
2020-11-19 05:00:00 5.2 3 Sudeste 5 Sudeste 0 -- -- 100
2020-11-19 04:00:00 5.5 0 Calma 4 Sudeste 0 -- -- 100
2020-11-19 03:00:00 5.2 4 Sudeste 8 Sudeste 0 -- -- 100
2020-11-19 02:00:00 5.5 3 Sudeste 8 Sudeste 0 -- -- 100
2020-11-19 01:00:00 7.1 3 Nordeste 4 Norte 0 -- -- 100
2020-11-19 00:00:00 8.9 0 Calma 5 Sudeste 0 -- -- 100
2020-11-18 23:00:00 10 0 Calma 8 Sur 0 -- -- 98
2020-11-18 22:00:00 10.9 8 Sudeste 14 Sudeste 0 -- -- 99
2020-11-18 21:00:00 9.5 7 Sudeste 13 Sudeste 0 -- -- 100
2020-11-18 20:00:00 6.7 3 Sudeste 10 Sudeste 0 -- -- 97
2020-11-18 19:00:00 7.1 7 Sudeste 9 Sudeste 0 -- -- 93
2020-11-18 18:00:00 9.7 5 Sudeste 8 Sudeste 0 -- -- 87
2020-11-18 17:00:00 14.1 4 Noroeste 7 Noroeste 0 -- -- 72
2020-11-18 16:00:00 17.1 5 Sudoeste 13 Oeste 0 -- -- 62
2020-11-18 15:00:00 18.2 5 Sur 15 Sudeste 0 -- -- 57
2020-11-18 14:00:00 17.5 8 Sudeste 16 Sudeste 0 -- -- 58
2020-11-18 13:00:00 17.2 6 Sudeste 15 Sudoeste 0 -- -- 62
2020-11-18 12:00:00 16.4 5 Sudeste 11 Sudeste 0 -- -- 63
2020-11-18 11:00:00 14.7 2 Sur 4 Sudoeste 0 -- -- 73
2020-11-18 10:00:00 10.3 0 Calma 9 Sudeste 0 -- -- 96
2020-11-18 09:00:00 3.4 6 Sudeste 8 Sudeste 0 -- -- 100
2020-11-18 08:00:00 0.5 5 Sudeste 9 Sudeste 0 -- -- 100
2020-11-18 07:00:00 0.5 4 Sudeste 8 Sudeste 0 -- -- 100
2020-11-18 06:00:00 0.6 6 Sudeste 10 Sudeste 0 -- -- 100
2020-11-18 05:00:00 1.2 5 Sudeste 9 Sudeste 0 -- -- 100
2020-11-18 04:00:00 1.6 6 Sudeste 10 Sudeste 0 -- -- 100
2020-11-18 03:00:00 1.5 6 Sudeste 9 Sudeste 0 -- -- 100
2020-11-18 02:00:00 1.5 5 Este 9 Sudeste 0 -- -- 100
2020-11-18 01:00:00 1.6 7 Sudeste 9 Sudeste 0 -- -- 100
2020-11-18 00:00:00 2.2 4 Sudeste 7 Sudeste 0 -- -- 99
2020-11-17 23:00:00 2.6 5 Sudeste 10 Sudeste 0 -- -- 98
2020-11-17 22:00:00 3.1 5 Sudeste 8 Sudeste 0 -- -- 98
2020-11-17 21:00:00 3.7 4 Sudeste 9 Sudeste 0 -- -- 96
2020-11-17 20:00:00 5 5 Este 10 Sudeste 0 -- -- 95
2020-11-17 19:00:00 6.2 4 Sudeste 7 Sudeste 0 -- -- 91
2020-11-17 18:00:00 9 4 Sudeste 6 Sudeste 0 -- -- 82
2020-11-17 17:00:00 13 4 Noroeste 11 Oeste 0 -- -- 68
2020-11-17 16:00:00 16.6 8 Oeste 12 Sudoeste 0 -- -- 56
2020-11-17 15:00:00 18 5 Sudoeste 10 Sudoeste 0 -- -- 47
2020-11-17 14:00:00 17.2 6 Sur 13 Sudeste 0 -- -- 49
2020-11-17 13:00:00 16.2 5 Sudeste 9 Sur 0 -- -- 51
2020-11-17 12:00:00 14.4 3 Sudoeste 9 Oeste 0 -- -- 59
2020-11-17 11:00:00 12 5 Oeste 8 Oeste 0 -- -- 71
2020-11-17 10:00:00 9.1 3 Oeste 10 Sudeste 0 -- -- 87
2020-11-17 09:00:00 4.3 2 Este 8 Sudeste 0 -- -- 100
2020-11-17 08:00:00 0.5 8 Sudeste 10 Sudeste 0 -- -- 100
2020-11-17 07:00:00 0.7 5 Sudeste 12 Sudeste 0 -- -- 100
2020-11-17 06:00:00 0.8 6 Sudeste 12 Sudeste 0 -- -- 99
2020-11-17 05:00:00 1.1 6 Sudeste 9 Sudeste 0 -- -- 100
2020-11-17 04:00:00 0.8 3 Sur 7 Sudeste 0 -- -- 99
2020-11-17 03:00:00 1.5 4 Sudeste 6 Sudeste 0 -- -- 98
2020-11-17 02:00:00 2.4 5 Sudeste 8 Sudeste 0 -- -- 98
2020-11-17 01:00:00 3.7 4 Este 12 Sudeste 0 -- -- 97
2020-11-17 00:00:00 4.8 7 Sudeste 11 Noroeste 0 -- -- 94
2020-11-16 23:00:00 6.6 8 Noroeste 13 Noroeste 0 -- -- 93
2020-11-16 22:00:00 6.8 4 Noroeste 8 Norte 0 -- -- 91
2020-11-16 21:00:00 7.7 3 Norte 6 Norte 0 -- -- 90
2020-11-16 20:00:00 8.7 5 Sudeste 13 Oeste 0 -- -- 86
2020-11-16 19:00:00 10 3 Noroeste 6 Sudeste 0 -- -- 86
2020-11-16 18:00:00 10.2 3 Este 12 Oeste 0 -- -- 85
2020-11-16 17:00:00 13.3 10 Oeste 19 Noroeste 0 -- -- 73
2020-11-16 16:00:00 14 12 Oeste 27 Oeste 0 -- -- 72
2020-11-16 15:00:00 14.2 20 Noroeste 31 Noroeste 0 -- -- 70
2020-11-16 14:00:00 15.4 17 Noroeste 36 Noroeste 0 -- -- 67
2020-11-16 13:00:00 15.4 21 Noroeste 32 Noroeste 0 -- -- 64
2020-11-16 12:00:00 15.1 11 Noroeste 30 Noroeste 0 -- -- 71
2020-11-16 11:00:00 14.1 13 Oeste 30 Oeste 0 -- -- 77
2020-11-16 10:00:00 13.2 11 Oeste 26 Oeste 0 -- -- 85
2020-11-16 09:00:00 11.7 19 Noroeste 30 Oeste 0 -- -- 100
2020-11-16 08:00:00 11.9 12 Noroeste 28 Noroeste 0 -- -- 100
2020-11-16 07:00:00 12 21 Noroeste 30 Noroeste 0 -- -- 99
2020-11-16 06:00:00 11.8 14 Noroeste 24 Noroeste 0 -- -- 98
2020-11-16 05:00:00 11.5 13 Noroeste 20 Noroeste 0 -- -- 98
2020-11-16 04:00:00 11.2 11 Noroeste 19 Noroeste 0 -- -- 98
2020-11-16 03:00:00 11 12 Noroeste 17 Noroeste 0 -- -- 97
2020-11-16 02:00:00 10.7 8 Noroeste 13 Noroeste 0 -- -- 99
2020-11-16 01:00:00 9.5 5 Noroeste 9 Noroeste 0 -- -- 99
2020-11-16 00:00:00 9.5 0 Calma 4 Sudeste 0 -- -- 98
2020-11-15 23:00:00 9.5 3 Sudeste 5 Sudeste 0 -- -- 99
2020-11-15 22:00:00 9.6 3 Sudeste 4 Sudeste 0 -- -- 95
2020-11-15 21:00:00 10.5 0 Calma 5 Noroeste 0 -- -- 93
2020-11-15 20:00:00 11.4 2 Noroeste 15 Noroeste 0 -- -- 91
2020-11-15 19:00:00 12.5 12 Noroeste 15 Noroeste 0 -- -- 87
2020-11-15 18:00:00 12.7 10 Noroeste 23 Oeste 0 -- -- 85
2020-11-15 17:00:00 13.8 15 Noroeste 30 Noroeste 0 -- -- 80
2020-11-15 16:00:00 14.7 20 Noroeste 36 Noroeste 0 -- -- 75
2020-11-15 15:00:00 15.6 25 Noroeste 35 Oeste 0 -- -- 71
2020-11-15 14:00:00 15.7 21 Noroeste 35 Oeste 0 -- -- 70
2020-11-15 13:00:00 15 24 Noroeste 33 Noroeste 0 -- -- 75
2020-11-15 12:00:00 14.8 23 Oeste 39 Noroeste 0 -- -- 79
2020-11-15 11:00:00 12.4 14 Noroeste 21 Oeste 0 -- -- 100
2020-11-15 10:00:00 10.5 6 Noroeste 10 Noroeste 0 -- -- 100
2020-11-15 09:00:00 6.7 4 Noroeste 7 Sudeste 0 -- -- 100
2020-11-15 08:00:00 4.4 4 Sudeste 7 Sudeste 0 -- -- 100
2020-11-15 07:00:00 4.6 4 Sudeste 5 Sudeste 0 -- -- 100
2020-11-15 06:00:00 4.4 4 Sudeste 7 Sudeste 0 -- -- 100
2020-11-15 05:00:00 4.6 5 Sudeste 6 Sudeste 0.2 -- -- 100
2020-11-15 04:00:00 5.9 4 Sudeste 6 Sudeste 0 -- -- 100
2020-11-15 03:00:00 7.1 2 Sudeste 5 Sudeste 0 -- -- 100
2020-11-15 02:00:00 7.3 3 Sudeste 7 Sudeste 0 -- -- 100
2020-11-15 01:00:00 8.2 4 Sudeste 6 Sudeste 0 -- -- 98
2020-11-15 00:00:00 9.7 0 Calma 4 Sudeste 0 -- -- 99
2020-11-14 23:00:00 9.6 3 Sudeste 5 Sudeste 0 -- -- 98
2020-11-14 22:00:00 9.8 3 Noroeste 4 Noroeste 0 -- -- 97
2020-11-14 21:00:00 9.8 3 Noroeste 4 Noroeste 0 -- -- 97
2020-11-14 20:00:00 9.8 3 Sudeste 5 Sudeste 0 -- -- 95
2020-11-14 19:00:00 10.5 3 Este 5 Sudeste 0 -- -- 92
2020-11-14 18:00:00 12.1 2 Sudeste 5 Sudeste 0 -- -- 89
2020-11-14 17:00:00 14.1 0 Calma 12 Oeste 0 -- -- 81
2020-11-14 16:00:00 15.1 9 Noroeste 17 Oeste 0 -- -- 78
2020-11-14 15:00:00 16.4 9 Oeste 15 Oeste 0 -- -- 73
2020-11-14 14:00:00 16.3 6 Noroeste 14 Oeste 0 -- -- 72
2020-11-14 13:00:00 16.9 8 Oeste 21 Sur 0 -- -- 70
2020-11-14 12:00:00 16.3 5 Sudoeste 11 Sur 0 -- -- 69
2020-11-14 11:00:00 14.7 5 Sur 14 Sudoeste 0 -- -- 79
2020-11-14 10:00:00 11.7 5 Sudeste 9 Sur 0 -- -- 100
2020-11-14 09:00:00 5.2 4 Sudeste 8 Sudeste 0 -- -- 100
2020-11-14 08:00:00 2.3 6 Sudeste 8 Sudeste 0 -- -- 100
2020-11-14 07:00:00 1.9 5 Sudeste 8 Sudeste 0 -- -- 100
2020-11-14 06:00:00 2.2 6 Sudeste 9 Sudeste 0 -- -- 100
2020-11-14 05:00:00 2.3 5 Sudeste 9 Sudeste 0 -- -- 100
2020-11-14 04:00:00 2.5 7 Sudeste 8 Sudeste 0 -- -- 100
2020-11-14 03:00:00 3.1 4 Este 8 Sudeste 0 -- -- 100
2020-11-14 02:00:00 3.9 6 Sudeste 9 Sudeste 0 -- -- 100
2020-11-14 01:00:00 3.6 7 Sudeste 10 Sudeste 0 -- -- 100
2020-11-14 00:00:00 3.6 6 Sudeste 8 Sudeste 0 -- -- 100
2020-11-13 23:00:00 4.2 8 Sudeste 10 Sudeste 0 -- -- 100
2020-11-13 22:00:00 5.2 8 Sudeste 9 Sudeste 0 -- -- 100
2020-11-13 21:00:00 4.6 7 Sudeste 9 Sudeste 0 -- -- 98
2020-11-13 20:00:00 5.8 4 Sudeste 7 Sudeste 0 -- -- 96
2020-11-13 19:00:00 8.2 0 Calma 4 Nordeste 0 -- -- 91
2020-11-13 18:00:00 11.1 0 Calma 6 Norte 0 -- -- 86
2020-11-13 17:00:00 13.6 3 Noroeste 8 Noroeste 0 -- -- 75
2020-11-13 16:00:00 14.6 3 Sudoeste 12 Noroeste 0 -- -- 68
2020-11-13 15:00:00 15.7 8 Oeste 17 Oeste 0 -- -- 67
2020-11-13 14:00:00 15 10 Noroeste 18 Noroeste 0 -- -- 67
2020-11-13 13:00:00 16.4 5 Sur 9 Este 0 -- -- 56
2020-11-13 12:00:00 15.8 3 Sur 8 Oeste 0 -- -- 58
2020-11-13 11:00:00 12.5 3 Oeste 6 Oeste 0 -- -- 81
2020-11-13 10:00:00 10.2 3 Sudeste 4 Sudeste 0 -- -- 100
2020-11-13 09:00:00 6.3 5 Sudeste 8 Sudeste 0 -- -- 100
2020-11-13 08:00:00 4.3 5 Sudeste 9 Sudeste 0 -- -- 100
2020-11-13 07:00:00 3.9 4 Sudeste 10 Este 0 -- -- 100
2020-11-13 06:00:00 4.7 5 Sudeste 8 Sudeste 0 -- -- 100
2020-11-13 05:00:00 5 5 Sudeste 9 Sudeste 0 -- -- 100
2020-11-13 04:00:00 5.2 5 Sudeste 13 Sudeste 0 -- -- 100
2020-11-13 03:00:00 5.3 6 Sudeste 13 Sudeste 0 -- -- 100
2020-11-13 02:00:00 5.5 6 Sudeste 12 Sudeste 0 -- -- 100
2020-11-13 01:00:00 4.9 7 Sudeste 9 Sudeste 0 -- -- 100
2020-11-13 00:00:00 4.6 5 Sudeste 12 Sudeste 0 -- -- 100
2020-11-12 23:00:00 4.3 5 Sudeste 8 Sudeste 0 -- -- 100
2020-11-12 22:00:00 4.9 6 Sudeste 9 Sudeste 0 -- -- 100
2020-11-12 21:00:00 4.6 6 Sudeste 8 Sudeste 0 -- -- 99
2020-11-12 20:00:00 5.7 4 Sudeste 6 Sudeste 0 -- -- 98
2020-11-12 19:00:00 7.6 5 Sudeste 8 Sudeste 0 -- -- 96
2020-11-12 18:00:00 10.5 2 Este 4 Norte 0 -- -- 93
2020-11-12 17:00:00 13.1 0 Calma 10 Oeste 0 -- -- 84
2020-11-12 16:00:00 14.7 8 Oeste 11 Oeste 0 -- -- 78
2020-11-12 15:00:00 15.5 8 Oeste 14 Noroeste 0 -- -- 77
2020-11-12 14:00:00 15.9 9 Oeste 13 Oeste 0 -- -- 75
2020-11-12 13:00:00 15.8 3 Sur 10 Sudoeste 0 -- -- 71
2020-11-12 12:00:00 13.1 6 Este 10 Este 0 -- -- 100
2020-11-12 11:00:00 11.2 6 Noroeste 9 Oeste 0 -- -- 100
2020-11-12 10:00:00 9.7 6 Noroeste 10 Noroeste 0 -- -- 100
2020-11-12 09:00:00 6.2 3 Sudeste 8 Sudeste 0.2 -- -- 100
2020-11-12 08:00:00 3.8 4 Sudeste 8 Sudeste 0 -- -- 100
2020-11-12 07:00:00 3.5 4 Sudeste 6 Sudeste 0 -- -- 100
2020-11-12 06:00:00 4 3 Sudeste 7 Sudeste 0 -- -- 100
2020-11-12 05:00:00 4.3 4 Sudeste 6 Sudeste 0 -- -- 100
2020-11-12 04:00:00 3.6 5 Sudeste 8 Sudeste 0 -- -- 100
2020-11-12 03:00:00 3.1 4 Sudeste 6 Este 0 -- -- 100
2020-11-12 02:00:00 3.7 3 Sudeste 8 Sudeste 0 -- -- 100
2020-11-12 01:00:00 4.5 4 Sudeste 6 Sudeste 0 -- -- 100
2020-11-12 00:00:00 5.8 4 Sudeste 6 Sudeste 0 -- -- 100
2020-11-11 23:00:00 7.6 2 Sur 8 Este 0 -- -- 100
2020-11-11 22:00:00 9 8 Este 12 Este 0 -- -- 100
2020-11-11 21:00:00 6.4 5 Este 8 Este 0 -- -- 100
2020-11-11 20:00:00 5.1 5 Sudeste 7 Sudeste 0 -- -- 97
2020-11-11 19:00:00 6.6 4 Sudeste 5 Sudeste 0 -- -- 95
2020-11-11 18:00:00 9.3 0 Calma 4 Norte 0 -- -- 90
2020-11-11 17:00:00 12 4 Oeste 18 Oeste 0 -- -- 81
2020-11-11 16:00:00 14.3 14 Noroeste 18 Oeste 0 -- -- 73
2020-11-11 15:00:00 14.9 13 Noroeste 19 Oeste 0 -- -- 72
2020-11-11 14:00:00 15.4 11 Noroeste 18 Oeste 0 -- -- 67
2020-11-11 13:00:00 14.4 13 Noroeste 19 Oeste 0 -- -- 71
2020-11-11 12:00:00 13.5 12 Noroeste 16 Noroeste 0 -- -- 79
2020-11-11 11:00:00 11.6 10 Noroeste 13 Oeste 0 -- -- 100
2020-11-11 10:00:00 9 2 Noroeste 6 Oeste 0 -- -- 100
2020-11-11 09:00:00 3.4 5 Sudeste 8 Sudeste 0 -- -- 100
2020-11-11 08:00:00 1.7 5 Sudeste 6 Sudeste 0 -- -- 100
2020-11-11 07:00:00 1.4 5 Sudeste 8 Sudeste 0.2 -- -- 100
2020-11-11 06:00:00 1.5 5 Sudeste 8 Sudeste 0 -- -- 100
2020-11-11 05:00:00 1.9 5 Sudeste 6 Sudeste 0 -- -- 100
2020-11-11 04:00:00 2 4 Sudeste 8 Sudeste 0 -- -- 100
2020-11-11 03:00:00 2.1 6 Sudeste 8 Sudeste 0 -- -- 100
2020-11-11 02:00:00 2.2 6 Sudeste 8 Sudeste 0 -- -- 100
2020-11-11 01:00:00 2.1 6 Sudeste 8 Sudeste 0 -- -- 100
2020-11-11 00:00:00 2.8 4 Sudeste 9 Sudeste 0 -- -- 100
2020-11-10 23:00:00 2.7 6 Sudeste 8 Sudeste 0 -- -- 100
2020-11-10 22:00:00 3.2 6 Sudeste 8 Sudeste 0 -- -- 100
2020-11-10 21:00:00 3.9 3 Sudeste 8 Sudeste 0 -- -- 99
2020-11-10 20:00:00 5 5 Sudeste 8 Sudeste 0 -- -- 98
2020-11-10 19:00:00 6.7 3 Sudeste 7 Sudeste 0 -- -- 96
2020-11-10 18:00:00 9.7 4 Noroeste 12 Noroeste 0 -- -- 93
2020-11-10 17:00:00 11.1 6 Oeste 15 Noroeste 0 -- -- 87
2020-11-10 16:00:00 12.5 14 Noroeste 18 Noroeste 0 -- -- 83
2020-11-10 15:00:00 13.7 13 Oeste 16 Noroeste 0 -- -- 75
2020-11-10 14:00:00 12.6 9 Noroeste 15 Noroeste 0 -- -- 85
2020-11-10 13:00:00 9.9 5 Noroeste 10 Noroeste 0 -- -- 100
2020-11-10 12:00:00 9.2 5 Noroeste 11 Oeste 0 -- -- 100
2020-11-10 11:00:00 8.9 6 Noroeste 12 Oeste 0 -- -- 100
2020-11-10 10:00:00 8.9 6 Noroeste 12 Oeste 0 -- -- 100
2020-11-10 09:00:00 8.7 5 Noroeste 10 Noroeste 0 -- -- 100
2020-11-10 08:00:00 8.6 6 Noroeste 15 Oeste 0 -- -- 100
2020-11-10 07:00:00 8.7 11 Noroeste 15 Noroeste 0 -- -- 100
2020-11-10 06:00:00 8.8 7 Noroeste 12 Noroeste 0 -- -- 100
2020-11-10 05:00:00 5 4 Noroeste 8 Norte 0 -- -- 100
2020-11-10 04:00:00 2.9 4 Sudeste 9 Sudeste 0 -- -- 100
2020-11-10 03:00:00 2.8 4 Sudeste 6 Sudeste 0 -- -- 100
2020-11-10 02:00:00 2.8 5 Sudeste 9 Sudeste 0 -- -- 100
2020-11-10 01:00:00 3.2 2 Nordeste 7 Sudeste 0 -- -- 100
2020-11-10 00:00:00 2.9 5 Sudeste 8 Sudeste 0 -- -- 100
2020-11-09 23:00:00 3.1 5 Sudeste 7 Sudeste 0 -- -- 99
2020-11-09 22:00:00 3.9 5 Sudeste 8 Sudeste 0 -- -- 99
2020-11-09 21:00:00 4.6 5 Sudeste 6 Sudeste 0 -- -- 97
2020-11-09 20:00:00 5.6 5 Sudeste 7 Sudeste 0 -- -- 96
2020-11-09 19:00:00 7.1 5 Sudeste 6 Sudeste 0 -- -- 92
2020-11-09 18:00:00 10 4 Sudeste 5 Sudeste 0 -- -- 84
2020-11-09 17:00:00 13.6 4 Oeste 16 Oeste 0 -- -- 68
2020-11-09 16:00:00 16.5 10 Oeste 19 Noroeste 0 -- -- 56
2020-11-09 15:00:00 17.2 11 Oeste 21 Oeste 0 -- -- 52
2020-11-09 14:00:00 17 12 Oeste 18 Oeste 0 -- -- 56
2020-11-09 13:00:00 16.5 10 Oeste 17 Oeste 0 -- -- 59
2020-11-09 12:00:00 15.4 9 Oeste 13 Oeste 0 -- -- 66
2020-11-09 11:00:00 13.4 9 Noroeste 13 Noroeste 0 -- -- 79
2020-11-09 10:00:00 10.2 0 Calma 5 Este 0 -- -- 100
2020-11-09 09:00:00 5 3 Este 8 Sudeste 0 -- -- 100
2020-11-09 08:00:00 1 7 Sudeste 9 Sudeste 0 -- -- 100
2020-11-09 07:00:00 0.8 6 Sudeste 9 Sudeste 0 -- -- 100
2020-11-09 06:00:00 1.1 8 Sudeste 10 Sudeste 0 -- -- 100
2020-11-09 05:00:00 1.4 7 Sudeste 8 Sudeste 0 -- -- 100
2020-11-09 04:00:00 1.5 5 Sudeste 9 Sudeste 0 -- -- 100
2020-11-09 03:00:00 1.7 6 Sudeste 8 Sudeste 0 -- -- 100
2020-11-09 02:00:00 2.1 6 Sudeste 8 Sudeste 0 -- -- 100
2020-11-09 01:00:00 2.3 7 Sudeste 10 Sudeste 0 -- -- 100
2020-11-09 00:00:00 3.2 4 Sudeste 9 Sudeste 0 -- -- 100
2020-11-08 23:00:00 3.8 4 Sudeste 7 Sudeste 0 -- -- 100
2020-11-08 22:00:00 4.3 5 Sudeste 8 Sudeste 0 -- -- 99
2020-11-08 21:00:00 5.2 4 Sudeste 8 Sudeste 0 -- -- 99
2020-11-08 20:00:00 6.6 4 Sudeste 7 Sudeste 0 -- -- 97
2020-11-08 19:00:00 8.4 2 Sudeste 6 Este 0 -- -- 95
2020-11-08 18:00:00 10.3 3 Este 5 Sudeste 0 -- -- 90
2020-11-08 17:00:00 14 2 Noroeste 9 Oeste 0 -- -- 75
2020-11-08 16:00:00 16.5 7 Oeste 10 Oeste 0 -- -- 69
2020-11-08 15:00:00 15.4 6 Oeste 14 Oeste 0 -- -- 74
2020-11-08 14:00:00 16.1 10 Oeste 16 Noroeste 0 -- -- 76
2020-11-08 13:00:00 14.7 12 Noroeste 15 Noroeste 0 -- -- 80
2020-11-08 12:00:00 15 6 Noroeste 14 Oeste 0 -- -- 81
2020-11-08 11:00:00 12.2 7 Noroeste 11 Noroeste 0 -- -- 100
2020-11-08 10:00:00 10.7 7 Oeste 11 Oeste 0 -- -- 100
2020-11-08 09:00:00 9.7 5 Noroeste 10 Noroeste 0 -- -- 100
2020-11-08 08:00:00 7.3 3 Nordeste 6 Sudeste 0 -- -- 100
2020-11-08 07:00:00 5.9 2 Este 6 Sudeste 0 -- -- 100
2020-11-08 06:00:00 4.9 3 Sudeste 7 Sudeste 0 -- -- 100
2020-11-08 05:00:00 3.8 4 Sudeste 9 Sudeste 0 -- -- 100
2020-11-08 04:00:00 4 0 Calma 11 Sudeste 0 -- -- 100
2020-11-08 03:00:00 4.5 4 Sudeste 9 Sudeste 0 -- -- 100
2020-11-08 02:00:00 5.3 3 Sudeste 7 Sudeste 0 -- -- 100
2020-11-08 01:00:00 5.6 4 Sudeste 6 Sudeste 0 -- -- 100
2020-11-08 00:00:00 6.7 6 Sudeste 8 Sudeste 0 -- -- 99
2020-11-07 23:00:00 7.6 3 Sudeste 7 Sudeste 0 -- -- 99
2020-11-07 22:00:00 8.8 3 Sudeste 8 Sudeste 0 -- -- 98
2020-11-07 21:00:00 10.8 4 Nordeste 17 Sur 0 -- -- 95
2020-11-07 20:00:00 11.8 9 Sur 18 Sur 0 -- -- 94
2020-11-07 19:00:00 11.5 8 Sudeste 14 Sudeste 0 -- -- 92
2020-11-07 18:00:00 11.5 6 Sudeste 13 Sur 0 -- -- 92
2020-11-07 17:00:00 13.2 10 Sur 27 Sur 0 -- -- 86
2020-11-07 16:00:00 14.4 13 Sur 32 Sudeste 0 -- -- 86
2020-11-07 15:00:00 14.9 12 Sur 31 Sudoeste 0 -- -- 85
2020-11-07 14:00:00 13.6 16 Sur 30 Sur 0 -- -- 93
2020-11-07 13:00:00 13.4 19 Sudeste 36 Sudeste 0.6 -- -- 95
2020-11-07 12:00:00 13.2 22 Sudeste 53 Sur 2.6 -- -- 94
2020-11-07 11:00:00 14 23 Sudeste 47 Sur 2.2 -- -- 95
2020-11-07 10:00:00 14.4 18 Sudeste 32 Sudeste 3.2 -- -- 98
2020-11-07 09:00:00 13.7 19 Sudeste 40 Sudeste 2.2 -- -- 97
2020-11-07 08:00:00 13.7 23 Sudeste 56 Este 0.2 -- -- 97
2020-11-07 07:00:00 13.8 23 Sudeste 45 Sudeste 0 -- -- 93
2020-11-07 06:00:00 13.8 27 Sudeste 49 Este 0 -- -- 92
2020-11-07 05:00:00 13.9 25 Sudeste 49 Sudeste 0 -- -- 92
2020-11-07 04:00:00 13.8 25 Sudeste 47 Sudeste 0 -- -- 92
2020-11-07 03:00:00 13.7 31 Sudeste 46 Sudeste 0 -- -- 93
2020-11-07 02:00:00 13.7 31 Sudeste 52 Sudeste 0 -- -- 93
2020-11-07 01:00:00 13.8 30 Sudeste 51 Sudeste 0 -- -- 93
2020-11-07 00:00:00 13.9 27 Sudeste 48 Este 0 -- -- 94
2020-11-06 23:00:00 13.9 26 Sudeste 45 Este 0 -- -- 94
2020-11-06 22:00:00 13.7 24 Sudeste 47 Este 0 -- -- 94
2020-11-06 21:00:00 13.7 25 Sudeste 45 Sudeste 0 -- -- 94
2020-11-06 20:00:00 13.6 25 Sudeste 42 Sudeste 0 -- -- 95
2020-11-06 19:00:00 13.7 21 Sudeste 44 Este 0 -- -- 93
2020-11-06 18:00:00 13.7 20 Sudeste 39 Sudeste 0 -- -- 93
2020-11-06 17:00:00 13.8 20 Sudeste 38 Este 0 -- -- 92
2020-11-06 16:00:00 14 22 Sudeste 43 Este 0 -- -- 91
2020-11-06 15:00:00 14.3 20 Sudeste 34 Sudeste 0 -- -- 89
2020-11-06 14:00:00 13.9 16 Sudeste 32 Sudeste 0 -- -- 89
2020-11-06 13:00:00 13.6 19 Sudeste 34 Este 0 -- -- 91
2020-11-06 12:00:00 13.5 19 Sudeste 36 Este 0 -- -- 94
2020-11-06 11:00:00 13.2 22 Sudeste 36 Sudeste 0 -- -- 93
2020-11-06 10:00:00 12.6 19 Este 36 Sudeste 0 -- -- 93
2020-11-06 09:00:00 12.4 23 Sudeste 37 Sudeste 0 -- -- 93
2020-11-06 08:00:00 11.9 12 Sudeste 25 Sudeste 0 -- -- 94
2020-11-06 07:00:00 12.2 9 Este 20 Este 0 -- -- 93
2020-11-06 06:00:00 12.1 8 Este 27 Sudeste 0 -- -- 95
2020-11-06 05:00:00 12 14 Sudeste 25 Este 0 -- -- 98
2020-11-06 04:00:00 12 13 Sudeste 33 Sudeste 0.2 -- -- 99
2020-11-06 03:00:00 12.4 19 Sudeste 36 Sudeste 0.4 -- -- 96
2020-11-06 02:00:00 12.3 19 Sudeste 32 Sudeste 0.2 -- -- 96
2020-11-06 01:00:00 12.2 19 Sudeste 35 Sudeste 0 -- -- 92
2020-11-06 00:00:00 12.3 19 Sudeste 35 Sudeste 0 -- -- 91
2020-11-05 23:00:00 12.3 15 Este 35 Sudeste 0 -- -- 89
2020-11-05 22:00:00 12.3 19 Sudeste 33 Sudeste 0 -- -- 89
2020-11-05 21:00:00 12.3 13 Sudeste 41 Sudeste 0 -- -- 89
2020-11-05 20:00:00 12.2 20 Sudeste 34 Sudeste 0 -- -- 90
2020-11-05 19:00:00 12.1 20 Sudeste 36 Sudeste 0 -- -- 88
2020-11-05 18:00:00 11.9 15 Sudeste 27 Sudeste 0 -- -- 88
2020-11-05 17:00:00 12.6 14 Sudeste 27 Sudeste 0 -- -- 84
2020-11-05 16:00:00 12.9 13 Sudeste 26 Este 0 -- -- 82
2020-11-05 15:00:00 13.5 19 Sudeste 28 Sudeste 0 -- -- 78
2020-11-05 14:00:00 13.5 16 Sudeste 34 Sudeste 0 -- -- 80
2020-11-05 13:00:00 14.1 19 Sudeste 33 Sudeste 0 -- -- 78
2020-11-05 12:00:00 12.7 21 Sudeste 37 Sudeste 0 -- -- 84
2020-11-05 11:00:00 12.2 19 Sudeste 30 Sudeste 0 -- -- 87
2020-11-05 10:00:00 11.8 15 Sudeste 26 Sudeste 0 -- -- 83
2020-11-05 09:00:00 10.2 9 Sudeste 18 Sudeste 0 -- -- 92
2020-11-05 08:00:00 6.7 10 Sudeste 16 Sudeste 0 -- -- 100
2020-11-05 07:00:00 4.5 8 Sudeste 15 Este 0.2 -- -- 100
2020-11-05 06:00:00 2.1 6 Sudeste 10 Sudeste 0 -- -- 100
2020-11-05 05:00:00 2.6 5 Sudeste 10 Sudeste 0 -- -- 100
2020-11-05 04:00:00 3.6 5 Sudeste 9 Sudeste 0 -- -- 100
2020-11-05 03:00:00 4.7 4 Sudeste 8 Sudeste 0 -- -- 100
2020-11-05 02:00:00 6.4 3 Este 9 Sudeste 0 -- -- 100
2020-11-05 01:00:00 7.7 5 Sudeste 9 Sur 0 -- -- 100
2020-11-05 00:00:00 7.6 0 Calma 11 Sudeste 0 -- -- 100
2020-11-04 23:00:00 7.2 2 Este 7 Sudeste 0 -- -- 100
2020-11-04 22:00:00 7 4 Sudeste 8 Sudeste 0 -- -- 100
2020-11-04 21:00:00 6.8 6 Sudeste 10 Sudeste 0 -- -- 100
2020-11-04 20:00:00 6.9 2 Nordeste 6 Sudeste 0 -- -- 99
2020-11-04 19:00:00 7.8 2 Sudoeste 9 Sudeste 0 -- -- 99
2020-11-04 18:00:00 7.8 0 Calma 6 Sudoeste 0 -- -- 97
2020-11-04 17:00:00 8 3 Noroeste 9 Oeste 0.2 -- -- 97
2020-11-04 16:00:00 8 4 Oeste 5 Noroeste 0 -- -- 99
2020-11-04 15:00:00 7.4 4 Oeste 10 Noroeste 0 -- -- 100
2020-11-04 14:00:00 6.7 2 Sudoeste 17 Noroeste 0 -- -- 100
2020-11-04 13:00:00 6.2 9 Noroeste 20 Oeste 0.2 -- -- 100
2020-11-04 12:00:00 6.2 13 Noroeste 19 Noroeste 0 -- -- 100
2020-11-04 11:00:00 6.9 6 Noroeste 14 Noroeste 0.4 -- -- 100
2020-11-04 10:00:00 6.7 3 Noroeste 8 Noroeste 0.8 -- -- 100
2020-11-04 09:00:00 6.3 0 Calma 13 Noroeste 1.8 -- -- 100
2020-11-04 08:00:00 6.2 8 Noroeste 16 Noroeste 1.4 -- -- 100
2020-11-04 07:00:00 6.3 8 Noroeste 17 Oeste 2 -- -- 100
2020-11-04 06:00:00 6.6 13 Noroeste 22 Noroeste 1.2 -- -- 100
2020-11-04 05:00:00 7.1 15 Noroeste 22 Noroeste 1.2 -- -- 100
2020-11-04 04:00:00 7.3 13 Noroeste 18 Noroeste 1.8 -- -- 100
2020-11-04 03:00:00 7.7 12 Noroeste 21 Noroeste 1.8 -- -- 100
2020-11-04 02:00:00 8.2 11 Noroeste 27 Noroeste 2.6 -- -- 100
2020-11-04 01:00:00 8.6 13 Noroeste 20 Noroeste 0.4 -- -- 100
2020-11-04 00:00:00 8.6 11 Noroeste 24 Noroeste 1.8 -- -- 99
2020-11-03 23:00:00 9.1 12 Noroeste 24 Noroeste 2.6 -- -- 97
2020-11-03 22:00:00 9.7 9 Noroeste 17 Oeste 0 -- -- 95
2020-11-03 21:00:00 9.9 14 Noroeste 26 Norte 0.6 -- -- 96
2020-11-03 20:00:00 10.3 18 Noroeste 25 Noroeste 0 -- -- 96
2020-11-03 19:00:00 11 14 Noroeste 20 Oeste 0 -- -- 92
2020-11-03 18:00:00 11.5 15 Noroeste 23 Noroeste 0 -- -- 92
2020-11-03 17:00:00 12.7 16 Noroeste 22 Oeste 0 -- -- 85
2020-11-03 16:00:00 13.1 12 Noroeste 22 Oeste 0 -- -- 85
2020-11-03 15:00:00 13.4 15 Noroeste 21 Oeste 0 -- -- 86
2020-11-03 14:00:00 13.4 13 Noroeste 20 Noroeste 0 -- -- 86
2020-11-03 13:00:00 13.6 14 Noroeste 21 Oeste 0 -- -- 85
2020-11-03 12:00:00 15.2 13 Noroeste 18 Noroeste 0 -- -- 82
2020-11-03 11:00:00 16.9 8 Sur 14 Sur 0 -- -- 74
2020-11-03 10:00:00 16 6 Sudeste 13 Sudeste 0 -- -- 82
2020-11-03 09:00:00 13.3 9 Sudeste 12 Sudeste 0 -- -- 96
2020-11-03 08:00:00 10.5 6 Sudeste 7 Sudeste 0 -- -- 99
2020-11-03 07:00:00 11.2 3 Sudeste 8 Este 0 -- -- 98
2020-11-03 06:00:00 12 3 Sudeste 11 Sudeste 0 -- -- 97
2020-11-03 05:00:00 12.5 7 Sudeste 13 Sudeste 0 -- -- 100
2020-11-03 04:00:00 12 9 Sudeste 13 Sudeste 0 -- -- 100
2020-11-03 03:00:00 11.4 8 Sudeste 14 Sudeste 0 -- -- 100
2020-11-03 02:00:00 8.8 6 Sudeste 14 Sudeste 0 -- -- 99
2020-11-03 01:00:00 6.5 10 Sudeste 12 Sudeste 0 -- -- 97
2020-11-03 00:00:00 6.7 5 Sudeste 8 Sudeste 0 -- -- 95
2020-11-02 23:00:00 7.4 5 Sudeste 9 Sudeste 0 -- -- 93
2020-11-02 22:00:00 7.9 5 Sudeste 8 Sudeste 0 -- -- 91
2020-11-02 21:00:00 8.4 5 Sudeste 7 Sudeste 0 -- -- 86
2020-11-02 20:00:00 9.5 5 Sudeste 6 Sudeste 0 -- -- 79
2020-11-02 19:00:00 11.2 4 Sudeste 7 Sudeste 0 -- -- 75
2020-11-02 18:00:00 14.7 3 Este 9 Sudeste 0 -- -- 62
2020-11-02 17:00:00 20.5 3 Sudoeste 15 Oeste 0 -- -- 45
2020-11-02 16:00:00 22.3 11 Oeste 17 Oeste 0 -- -- 42
2020-11-02 15:00:00 22.7 12 Oeste 21 Noroeste 0 -- -- 43
2020-11-02 14:00:00 22.5 15 Oeste 23 Noroeste 0 -- -- 44
2020-11-02 13:00:00 22.6 15 Oeste 19 Noroeste 0 -- -- 43
2020-11-02 12:00:00 21.7 15 Noroeste 18 Noroeste 0 -- -- 45
2020-11-02 11:00:00 20.4 11 Noroeste 16 Oeste 0 -- -- 46
2020-11-02 10:00:00 17.2 9 Noroeste 13 Noroeste 0 -- -- 64
2020-11-02 09:00:00 9.3 6 Sudeste 8 Sudeste 0 -- -- 95
2020-11-02 08:00:00 4.4 6 Sudeste 9 Sudeste 0 -- -- 100
2020-11-02 07:00:00 3.9 6 Sudeste 9 Sudeste 0 -- -- 100
2020-11-02 06:00:00 3.7 7 Sudeste 9 Sudeste 0 -- -- 99
2020-11-02 05:00:00 3.9 8 Sudeste 9 Sudeste 0 -- -- 98
2020-11-02 04:00:00 4 6 Sudeste 9 Sudeste 0 -- -- 98
2020-11-02 03:00:00 4.4 6 Sudeste 10 Sudeste 0 -- -- 98
2020-11-02 02:00:00 4.6 8 Sudeste 9 Sudeste 0 -- -- 97
2020-11-02 01:00:00 5 6 Sudeste 10 Sudeste 0 -- -- 96
2020-11-02 00:00:00 5.2 6 Sudeste 9 Sudeste 0 -- -- 95
2020-11-01 23:00:00 5.3 6 Sudeste 9 Sudeste 0 -- -- 93
2020-11-01 22:00:00 5.8 7 Sudeste 9 Sudeste 0 -- -- 90
2020-11-01 21:00:00 6.5 4 Sudeste 7 Sudeste 0 -- -- 88
2020-11-01 20:00:00 7.5 6 Sudeste 9 Sudeste 0 -- -- 84
2020-11-01 19:00:00 9.2 6 Sudeste 7 Sudeste 0 -- -- 80
2020-11-01 18:00:00 13.2 3 Sudeste 8 Noroeste 0 -- -- 68
2020-11-01 17:00:00 18.3 4 Oeste 18 Oeste 0 -- -- 53
2020-11-01 16:00:00 19.7 15 Noroeste 23 Noroeste 0 -- -- 48
2020-11-01 15:00:00 20 13 Noroeste 31 Oeste 0 -- -- 50
2020-11-01 14:00:00 18.9 19 Oeste 31 Noroeste 0 -- -- 54
2020-11-01 13:00:00 18.6 21 Noroeste 31 Oeste 0 -- -- 54
2020-11-01 12:00:00 17.3 21 Noroeste 33 Oeste 0 -- -- 57
2020-11-01 11:00:00 16.7 23 Noroeste 34 Noroeste 0 -- -- 59
2020-11-01 10:00:00 15.1 18 Noroeste 22 Oeste 0 -- -- 68
2020-11-01 09:00:00 9.2 10 Noroeste 15 Noroeste 0 -- -- 100
2020-11-01 08:00:00 2.6 2 Noroeste 6 Noroeste 0 -- -- 100
2020-11-01 07:00:00 2.1 5 Sudeste 9 Sudeste 0 -- -- 100
2020-11-01 06:00:00 2.3 6 Sudeste 9 Sudeste 0 -- -- 100
2020-11-01 05:00:00 2.3 6 Sudeste 9 Sudeste 0 -- -- 99
2020-11-01 04:00:00 2.5 5 Sudeste 9 Sudeste 0 -- -- 99
2020-11-01 03:00:00 2.4 8 Sudeste 9 Sudeste 0 -- -- 98
2020-11-01 02:00:00 2.3 8 Sudeste 9 Sudeste 0 -- -- 97
2020-11-01 01:00:00 3 5 Sudeste 8 Sudeste 0 -- -- 96
2020-11-01 00:00:00 3.7 5 Sudeste 9 Sudeste 0 -- -- 96
2020-10-31 23:00:00 4.2 8 Sudeste 10 Sudeste 0 -- -- 94
2020-10-31 22:00:00 4.7 7 Sudeste 10 Sudeste 0 -- -- 91
2020-10-31 21:00:00 5.8 5 Sudeste 9 Sudeste 0 -- -- 90
2020-10-31 20:00:00 6.8 4 Sudeste 8 Sudeste 0 -- -- 82
2020-10-31 19:00:00 9 3 Sudeste 10 Sudeste 0 -- -- 77
2020-10-31 18:00:00 12.8 2 Nordeste 13 Oeste 0 -- -- 65
2020-10-31 17:00:00 18 9 Oeste 22 Oeste 0 -- -- 49
2020-10-31 16:00:00 19.9 14 Oeste 27 Noroeste 0 -- -- 45
2020-10-31 15:00:00 20.1 18 Noroeste 25 Oeste 0 -- -- 44
2020-10-31 14:00:00 19.5 17 Oeste 32 Noroeste 0 -- -- 48
2020-10-31 13:00:00 19 22 Noroeste 30 Oeste 0 -- -- 49
2020-10-31 12:00:00 17.5 23 Noroeste 27 Oeste 0 -- -- 56
2020-10-31 11:00:00 16.5 17 Noroeste 23 Noroeste 0 -- -- 63
2020-10-31 10:00:00 13.7 11 Noroeste 16 Noroeste 0 -- -- 80
2020-10-31 09:00:00 4.6 5 Sudeste 8 Sudeste 0 -- -- 100
2020-10-31 08:00:00 -0.4 7 Sudeste 8 Sudeste 0 -- -- 100
2020-10-31 07:00:00 -0.7 7 Sudeste 10 Sudeste 0 -- -- 100
2020-10-31 06:00:00 -0.8 6 Sudeste 9 Sudeste 0 -- -- 99
2020-10-31 05:00:00 -0.7 8 Sudeste 10 Sudeste 0 -- -- 99
2020-10-31 04:00:00 -0.6 8 Sudeste 10 Sudeste 0 -- -- 99
2020-10-31 03:00:00 0 6 Sudeste 10 Sudeste 0 -- -- 99
2020-10-31 02:00:00 0.1 8 Sudeste 9 Sudeste 0 -- -- 98
2020-10-31 01:00:00 0.5 9 Sudeste 10 Sudeste 0 -- -- 98
2020-10-31 00:00:00 1.2 7 Sudeste 9 Sudeste 0 -- -- 98
2020-10-30 23:00:00 1.7 7 Sudeste 9 Sudeste 0 -- -- 97
2020-10-30 22:00:00 2.3 7 Sudeste 10 Sudeste 0 -- -- 95
2020-10-30 21:00:00 3.3 6 Sudeste 9 Sudeste 0 -- -- 92
2020-10-30 20:00:00 4.8 6 Sudeste 9 Sudeste 0 -- -- 89
2020-10-30 19:00:00 7.5 6 Sudeste 9 Sudeste 0 -- -- 83
2020-10-30 18:00:00 11.7 6 Sudeste 7 Sudeste 0 -- -- 71
2020-10-30 17:00:00 18.6 5 Noroeste 12 Oeste 0 -- -- 49
2020-10-30 16:00:00 20.5 9 Oeste 14 Oeste 0 -- -- 44
2020-10-30 15:00:00 20.2 12 Oeste 17 Noroeste 0 -- -- 46
2020-10-30 14:00:00 19.5 12 Oeste 19 Oeste 0 -- -- 50
2020-10-30 13:00:00 18.5 14 Oeste 21 Noroeste 0 -- -- 54
2020-10-30 12:00:00 17.5 13 Oeste 20 Oeste 0 -- -- 59
2020-10-30 11:00:00 16.3 11 Oeste 18 Noroeste 0 -- -- 65
2020-10-30 10:00:00 13.4 12 Oeste 16 Noroeste 0 -- -- 83
2020-10-30 09:00:00 6.3 0 Calma 9 Sudeste 0 -- -- 100
2020-10-30 08:00:00 0.5 6 Sudeste 8 Sudeste 0 -- -- 100
2020-10-30 07:00:00 0.3 7 Sudeste 9 Sudeste 0 -- -- 100
2020-10-30 06:00:00 0.3 7 Sudeste 9 Sudeste 0 -- -- 100
2020-10-30 05:00:00 0.5 7 Sudeste 9 Sudeste 0 -- -- 99
2020-10-30 04:00:00 0.9 6 Sudeste 10 Sudeste 0 -- -- 99
2020-10-30 03:00:00 1.1 7 Sudeste 9 Sudeste 0 -- -- 99
2020-10-30 02:00:00 1.5 6 Sudeste 9 Sudeste 0 -- -- 99
2020-10-30 01:00:00 2.3 6 Sudeste 8 Sudeste 0 -- -- 99
2020-10-30 00:00:00 2.6 6 Sudeste 9 Sudeste 0 -- -- 99
2020-10-29 23:00:00 2.6 8 Sudeste 9 Sudeste 0 -- -- 97
2020-10-29 22:00:00 3.5 5 Sudeste 8 Sudeste 0 -- -- 96
2020-10-29 21:00:00 4.4 5 Sudeste 7 Sudeste 0 -- -- 93
2020-10-29 20:00:00 5.9 6 Sudeste 8 Sudeste 0 -- -- 90
2020-10-29 19:00:00 8.6 5 Sudeste 8 Sudeste 0 -- -- 87
2020-10-29 18:00:00 12.8 0 Calma 11 Noroeste 0 -- -- 74
2020-10-29 17:00:00 16.7 6 Oeste 18 Oeste 0 -- -- 60
2020-10-29 16:00:00 17.5 12 Oeste 23 Noroeste 0 -- -- 57
2020-10-29 15:00:00 17.4 15 Noroeste 26 Noroeste 0 -- -- 58
2020-10-29 14:00:00 17.3 16 Oeste 27 Noroeste 0 -- -- 59
2020-10-29 13:00:00 16.3 17 Noroeste 27 Oeste 0 -- -- 61
2020-10-29 12:00:00 15.2 17 Oeste 25 Oeste 0 -- -- 66
2020-10-29 11:00:00 13.8 14 Oeste 23 Noroeste 0 -- -- 74
2020-10-29 10:00:00 12.3 9 Noroeste 13 Noroeste 0 -- -- 87
2020-10-29 09:00:00 6.5 3 Sudeste 8 Sudeste 0 -- -- 100
2020-10-29 08:00:00 1.8 6 Sudeste 8 Sudeste 0 -- -- 100
2020-10-29 07:00:00 1.5 6 Sudeste 9 Sudeste 0 -- -- 100
2020-10-29 06:00:00 2 5 Sudeste 9 Sudeste 0 -- -- 100
2020-10-29 05:00:00 1.8 7 Sudeste 9 Sudeste 0 -- -- 99
2020-10-29 04:00:00 2.1 7 Sudeste 9 Sudeste 0 -- -- 100
2020-10-29 03:00:00 2.2 8 Sudeste 8 Sudeste 0 -- -- 99
2020-10-29 02:00:00 2.5 7 Sudeste 8 Sudeste 0 -- -- 98
2020-10-29 01:00:00 3.2 5 Sudeste 9 Sudeste 0 -- -- 99
2020-10-29 00:00:00 3.6 6 Sudeste 9 Sudeste 0 -- -- 98
2020-10-28 23:00:00 3.6 4 Sudeste 10 Sudeste 0 -- -- 97
2020-10-28 22:00:00 4.1 5 Sudeste 9 Sudeste 0 -- -- 96
2020-10-28 21:00:00 5.3 4 Sudeste 8 Sudeste 0 -- -- 94
2020-10-28 20:00:00 6.8 5 Sudeste 9 Sudeste 0 -- -- 91
2020-10-28 19:00:00 8.6 5 Sudeste 7 Sudeste 0 -- -- 83
2020-10-28 18:00:00 13.2 2 Sudoeste 22 Oeste 0 -- -- 70
2020-10-28 17:00:00 15.9 18 Noroeste 25 Noroeste 0 -- -- 61
2020-10-28 16:00:00 16.5 15 Noroeste 24 Oeste 0 -- -- 58
2020-10-28 15:00:00 16.1 15 Oeste 30 Oeste 0 -- -- 59
2020-10-28 14:00:00 15.3 17 Oeste 28 Noroeste 0 -- -- 61
2020-10-28 13:00:00 14.9 19 Oeste 31 Oeste 0 -- -- 61
2020-10-28 12:00:00 14.3 24 Oeste 33 Oeste 0 -- -- 63
2020-10-28 11:00:00 13.4 20 Noroeste 29 Oeste 0 -- -- 67
2020-10-28 10:00:00 12.2 18 Oeste 27 Oeste 0 -- -- 70
2020-10-28 09:00:00 9.5 9 Noroeste 13 Noroeste 0 -- -- 81
2020-10-28 08:00:00 7.5 9 Noroeste 12 Noroeste 0 -- -- 87
2020-10-28 07:00:00 6.8 9 Noroeste 15 Noroeste 0 -- -- 87
2020-10-28 06:00:00 7.1 9 Noroeste 15 Noroeste 0 -- -- 87
2020-10-28 05:00:00 8 6 Oeste 18 Oeste 0 -- -- 82
2020-10-28 04:00:00 8.3 14 Noroeste 20 Oeste 0 -- -- 83
2020-10-28 03:00:00 5.3 7 Noroeste 13 Noroeste 0 -- -- 89
2020-10-28 02:00:00 6.2 2 Noroeste 13 Noroeste 0 -- -- 82
2020-10-28 01:00:00 8.5 10 Noroeste 21 Noroeste 0 -- -- 73
2020-10-28 00:00:00 4.2 6 Noroeste 10 Oeste 0 -- -- 92
2020-10-27 23:00:00 4 3 Sudeste 8 Noroeste 0 -- -- 91
2020-10-27 22:00:00 3.9 2 Nordeste 12 Oeste 0 -- -- 92
2020-10-27 21:00:00 3.3 5 Sudeste 8 Sudeste 0 -- -- 89
2020-10-27 20:00:00 4.7 4 Sudeste 8 Sudeste 0 -- -- 86
2020-10-27 19:00:00 7.3 0 Calma 14 Oeste 0 -- -- 75
2020-10-27 18:00:00 11.3 9 Noroeste 28 Noroeste 0 -- -- 59
2020-10-27 17:00:00 13.3 21 Noroeste 36 Oeste 0 -- -- 54
2020-10-27 16:00:00 13.7 23 Noroeste 39 Noroeste 0 -- -- 53
2020-10-27 15:00:00 13.1 22 Noroeste 38 Oeste 0 -- -- 55
2020-10-27 14:00:00 11.5 28 Noroeste 41 Noroeste 0 -- -- 60
2020-10-27 13:00:00 11.2 28 Noroeste 38 Noroeste 0 -- -- 63
2020-10-27 12:00:00 9.8 20 Noroeste 30 Noroeste 0 -- -- 70
2020-10-27 11:00:00 8.5 18 Noroeste 31 Oeste 0 -- -- 76
2020-10-27 10:00:00 7.7 21 Noroeste 33 Noroeste 0 -- -- 78
2020-10-27 09:00:00 6 14 Noroeste 17 Oeste 0 -- -- 86
2020-10-27 08:00:00 4.7 8 Noroeste 15 Norte 0 -- -- 91
2020-10-27 07:00:00 5.1 7 Noroeste 15 Noroeste 0 -- -- 88
2020-10-27 06:00:00 4.8 4 Noroeste 11 Noroeste 0 -- -- 89
2020-10-27 05:00:00 5 7 Noroeste 16 Noroeste 0 -- -- 88
2020-10-27 04:00:00 4.8 8 Noroeste 20 Noroeste 0 -- -- 88
2020-10-27 03:00:00 5.1 10 Noroeste 20 Noroeste 0 -- -- 86
2020-10-27 02:00:00 5.6 13 Noroeste 28 Noroeste 0 -- -- 83
2020-10-27 01:00:00 6.4 19 Noroeste 32 Noroeste 0 -- -- 80
2020-10-27 00:00:00 6.1 16 Noroeste 29 Noroeste 0 -- -- 81
2020-10-26 23:00:00 6.4 19 Noroeste 32 Oeste 0 -- -- 80
2020-10-26 22:00:00 6.8 13 Noroeste 33 Noroeste 0 -- -- 78
2020-10-26 21:00:00 7.7 21 Noroeste 39 Oeste 0 -- -- 76
2020-10-26 20:00:00 8.5 22 Noroeste 50 Oeste 0 -- -- 74
2020-10-26 19:00:00 9.3 27 Noroeste 40 Oeste 0 -- -- 66
2020-10-26 18:00:00 9.9 24 Noroeste 50 Oeste 0 -- -- 63
2020-10-26 17:00:00 11.2 32 Noroeste 57 Noroeste 0 -- -- 58
2020-10-26 16:00:00 12.7 33 Oeste 53 Oeste 0 -- -- 55
2020-10-26 15:00:00 12.2 30 Noroeste 50 Noroeste 0 -- -- 60
2020-10-26 14:00:00 11.4 32 Oeste 51 Oeste 0 -- -- 62
2020-10-26 13:00:00 11 33 Noroeste 50 Noroeste 0 -- -- 65
2020-10-26 12:00:00 10.1 35 Noroeste 52 Noroeste 0 -- -- 70
2020-10-26 11:00:00 8.6 38 Noroeste 51 Noroeste 0 -- -- 78
2020-10-26 10:00:00 6.7 26 Noroeste 44 Oeste 0 -- -- 87
2020-10-26 09:00:00 6.4 29 Noroeste 48 Noroeste 0 -- -- 86
2020-10-26 08:00:00 6.3 9 Noroeste 44 Oeste 0 -- -- 86
2020-10-26 07:00:00 6.5 23 Noroeste 49 Noroeste 0 -- -- 85
2020-10-26 06:00:00 7.5 30 Noroeste 48 Noroeste 0 -- -- 86
2020-10-26 05:00:00 8.6 28 Noroeste 46 Oeste 0 -- -- 91
2020-10-26 04:00:00 9.4 23 Noroeste 35 Oeste 0 -- -- 98
2020-10-26 03:00:00 9.5 17 Noroeste 36 Oeste 0 -- -- 98
2020-10-26 02:00:00 9.8 21 Noroeste 41 Noroeste 1 -- -- 97
2020-10-26 01:00:00 10.5 26 Noroeste 46 Noroeste 0.2 -- -- 94
2020-10-26 00:00:00 13.3 8 Sur 18 Sur 0 -- -- 67